Terminal Aerodrome Forecast
Issued by NWS Hastings, NE

Home | Current Version | Previous Version | Text Only | Print | Product List | Glossary On
Versions: 1 2 3 4 5 6 7 8 9 10 11 12 13 14 15 16 17 18
000
FTUS45 KGID 031730
TAFEAR
TAF
KEAR 031730Z 0318/0418 12010KT P6SM SCT150
     FM040600 VRB06KT P6SM BKN100
     FM041200 VRB06KT 6SM BR OVC020
     FM041400 15010KT P6SM BKN050
      AMD LTD TO CLD VIS AND WIND=

USA.gov is the U.S. government's official web portal to all federal, state and local government web resources and services.